sensor_id;sensor_type;location;lat;lon;timestamp;P1;durP1;ratioP1;P2;durP2;ratioP2
37455;SDS011;23316;50.718;7.328;2023-11-19T00:02:08;2.65;;;0.20;;
37455;SDS011;23316;50.718;7.328;2023-11-19T00:04:36;0.57;;;0.30;;
37455;SDS011;23316;50.718;7.328;2023-11-19T00:07:04;2.25;;;0.75;;
37455;SDS011;23316;50.718;7.328;2023-11-19T00:09:33;1.00;;;0.40;;
37455;SDS011;23316;50.718;7.328;2023-11-19T00:12:02;1.95;;;0.20;;
37455;SDS011;23316;50.718;7.328;2023-11-19T00:14:30;0.90;;;0.35;;
37455;SDS011;23316;50.718;7.328;2023-11-19T00:16:57;0.70;;;0.38;;
37455;SDS011;23316;50.718;7.328;2023-11-19T00:19:26;0.75;;;0.20;;
37455;SDS011;23316;50.718;7.328;2023-11-19T00:21:53;1.58;;;0.55;;
37455;SDS011;23316;50.718;7.328;2023-11-19T00:24:20;4.28;;;0.43;;
37455;SDS011;23316;50.718;7.328;2023-11-19T00:26:48;0.65;;;0.47;;
37455;SDS011;23316;50.718;7.328;2023-11-19T00:29:15;0.30;;;0.30;;
37455;SDS011;23316;50.718;7.328;2023-11-19T00:31:44;2.75;;;0.30;;
37455;SDS011;23316;50.718;7.328;2023-11-19T00:34:11;2.85;;;0.50;;
37455;SDS011;23316;50.718;7.328;2023-11-19T00:36:40;2.10;;;0.40;;
37455;SDS011;23316;50.718;7.328;2023-11-19T00:39:07;1.20;;;0.30;;
37455;SDS011;23316;50.718;7.328;2023-11-19T00:41:34;1.60;;;0.20;;
37455;SDS011;23316;50.718;7.328;2023-11-19T00:44:02;3.45;;;0.20;;
37455;SDS011;23316;50.718;7.328;2023-11-19T00:46:29;1.20;;;0.32;;
37455;SDS011;23316;50.718;7.328;2023-11-19T00:48:56;1.75;;;0.30;;
37455;SDS011;23316;50.718;7.328;2023-11-19T00:51:25;0.20;;;0.20;;
37455;SDS011;23316;50.718;7.328;2023-11-19T00:53:53;0.20;;;0.10;;
37455;SDS011;23316;50.718;7.328;2023-11-19T00:56:21;0.45;;;0.10;;
37455;SDS011;23316;50.718;7.328;2023-11-19T00:58:48;1.23;;;0.20;;
37455;SDS011;23316;50.718;7.328;2023-11-19T01:01:15;2.17;;;0.20;;
37455;SDS011;23316;50.718;7.328;2023-11-19T01:03:43;0.50;;;0.10;;
37455;SDS011;23316;50.718;7.328;2023-11-19T01:06:10;1.85;;;0.52;;
37455;SDS011;23316;50.718;7.328;2023-11-19T01:08:37;0.25;;;0.10;;
37455;SDS011;23316;50.718;7.328;2023-11-19T01:11:06;1.50;;;0.15;;
37455;SDS011;23316;50.718;7.328;2023-11-19T01:13:33;1.58;;;0.40;;
37455;SDS011;23316;50.718;7.328;2023-11-19T01:16:01;0.30;;;0.20;;
37455;SDS011;23316;50.718;7.328;2023-11-19T01:18:28;0.45;;;0.20;;
37455;SDS011;23316;50.718;7.328;2023-11-19T01:20:55;1.75;;;0.10;;
37455;SDS011;23316;50.718;7.328;2023-11-19T01:23:22;2.20;;;0.10;;
37455;SDS011;23316;50.718;7.328;2023-11-19T01:25:49;0.30;;;0.15;;
37455;SDS011;23316;50.718;7.328;2023-11-19T01:28:18;0.22;;;0.10;;
37455;SDS011;23316;50.718;7.328;2023-11-19T01:30:45;1.40;;;0.20;;
37455;SDS011;23316;50.718;7.328;2023-11-19T01:33:12;0.10;;;0.10;;
37455;SDS011;23316;50.718;7.328;2023-11-19T01:35:43;0.55;;;0.10;;
37455;SDS011;23316;50.718;7.328;2023-11-19T01:38:10;0.30;;;0.10;;
37455;SDS011;23316;50.718;7.328;2023-11-19T01:40:37;1.85;;;0.20;;
37455;SDS011;23316;50.718;7.328;2023-11-19T01:43:04;0.88;;;0.20;;
37455;SDS011;23316;50.718;7.328;2023-11-19T01:45:33;0.20;;;0.20;;
37455;SDS011;23316;50.718;7.328;2023-11-19T01:48:02;0.20;;;0.13;;
37455;SDS011;23316;50.718;7.328;2023-11-19T01:50:30;0.47;;;0.43;;
37455;SDS011;23316;50.718;7.328;2023-11-19T01:52:59;0.77;;;0.35;;
37455;SDS011;23316;50.718;7.328;2023-11-19T01:55:27;0.93;;;0.20;;
37455;SDS011;23316;50.718;7.328;2023-11-19T01:57:55;0.65;;;0.13;;
37455;SDS011;23316;50.718;7.328;2023-11-19T02:00:27;0.73;;;0.20;;
37455;SDS011;23316;50.718;7.328;2023-11-19T02:02:56;1.15;;;0.30;;
37455;SDS011;23316;50.718;7.328;2023-11-19T02:05:23;1.63;;;0.30;;
37455;SDS011;23316;50.718;7.328;2023-11-19T02:07:51;0.93;;;0.10;;
37455;SDS011;23316;50.718;7.328;2023-11-19T02:10:18;0.68;;;0.30;;
37455;SDS011;23316;50.718;7.328;2023-11-19T02:12:45;1.00;;;0.17;;
37455;SDS011;23316;50.718;7.328;2023-11-19T02:15:12;0.20;;;0.10;;
37455;SDS011;23316;50.718;7.328;2023-11-19T02:17:40;0.65;;;0.13;;
37455;SDS011;23316;50.718;7.328;2023-11-19T02:20:10;2.33;;;0.10;;
37455;SDS011;23316;50.718;7.328;2023-11-19T02:22:40;0.20;;;0.17;;
37455;SDS011;23316;50.718;7.328;2023-11-19T02:25:08;0.70;;;0.10;;
37455;SDS011;23316;50.718;7.328;2023-11-19T02:27:48;0.70;;;0.10;;
37455;SDS011;23316;50.718;7.328;2023-11-19T02:30:22;0.40;;;0.20;;
37455;SDS011;23316;50.718;7.328;2023-11-19T02:32:52;1.52;;;0.20;;
37455;SDS011;23316;50.718;7.328;2023-11-19T02:35:19;0.90;;;0.20;;
37455;SDS011;23316;50.718;7.328;2023-11-19T02:37:48;0.20;;;0.20;;
37455;SDS011;23316;50.718;7.328;2023-11-19T02:40:15;0.45;;;0.20;;
37455;SDS011;23316;50.718;7.328;2023-11-19T02:42:42;0.45;;;0.10;;
37455;SDS011;23316;50.718;7.328;2023-11-19T02:45:11;1.33;;;0.17;;
37455;SDS011;23316;50.718;7.328;2023-11-19T02:47:40;2.30;;;0.22;;
37455;SDS011;23316;50.718;7.328;2023-11-19T02:50:08;0.93;;;0.20;;
37455;SDS011;23316;50.718;7.328;2023-11-19T02:52:40;1.38;;;0.20;;
37455;SDS011;23316;50.718;7.328;2023-11-19T02:55:07;1.75;;;0.30;;
37455;SDS011;23316;50.718;7.328;2023-11-19T02:57:37;1.05;;;0.20;;
37455;SDS011;23316;50.718;7.328;2023-11-19T03:00:06;0.50;;;0.20;;
37455;SDS011;23316;50.718;7.328;2023-11-19T03:02:40;4.57;;;0.20;;
37455;SDS011;23316;50.718;7.328;2023-11-19T03:07:40;1.02;;;0.20;;
37455;SDS011;23316;50.718;7.328;2023-11-19T03:10:09;1.00;;;0.20;;
37455;SDS011;23316;50.718;7.328;2023-11-19T03:12:39;0.70;;;0.55;;
37455;SDS011;23316;50.718;7.328;2023-11-19T03:15:06;1.58;;;0.15;;
37455;SDS011;23316;50.718;7.328;2023-11-19T03:17:36;0.85;;;0.13;;
37455;SDS011;23316;50.718;7.328;2023-11-19T03:20:05;1.00;;;0.20;;
37455;SDS011;23316;50.718;7.328;2023-11-19T03:22:36;1.58;;;0.22;;
37455;SDS011;23316;50.718;7.328;2023-11-19T03:25:04;2.83;;;0.10;;
37455;SDS011;23316;50.718;7.328;2023-11-19T03:27:33;0.15;;;0.15;;
37455;SDS011;23316;50.718;7.328;2023-11-19T03:30:02;4.05;;;0.60;;
37455;SDS011;23316;50.718;7.328;2023-11-19T03:32:30;1.50;;;0.32;;
37455;SDS011;23316;50.718;7.328;2023-11-19T03:34:58;1.75;;;0.40;;
37455;SDS011;23316;50.718;7.328;2023-11-19T03:37:27;2.42;;;0.32;;
37455;SDS011;23316;50.718;7.328;2023-11-19T03:39:54;1.20;;;0.60;;
37455;SDS011;23316;50.718;7.328;2023-11-19T03:42:25;3.35;;;0.45;;
37455;SDS011;23316;50.718;7.328;2023-11-19T03:44:52;1.52;;;0.30;;
37455;SDS011;23316;50.718;7.328;2023-11-19T03:47:20;2.15;;;0.40;;
37455;SDS011;23316;50.718;7.328;2023-11-19T03:49:47;3.45;;;0.22;;
37455;SDS011;23316;50.718;7.328;2023-11-19T03:52:15;5.53;;;0.60;;
37455;SDS011;23316;50.718;7.328;2023-11-19T03:54:44;1.73;;;0.50;;
37455;SDS011;23316;50.718;7.328;2023-11-19T03:57:12;6.57;;;0.60;;
37455;SDS011;23316;50.718;7.328;2023-11-19T03:59:39;2.53;;;0.40;;
37455;SDS011;23316;50.718;7.328;2023-11-19T04:02:06;7.32;;;0.93;;
37455;SDS011;23316;50.718;7.328;2023-11-19T04:04:33;1.77;;;0.50;;
37455;SDS011;23316;50.718;7.328;2023-11-19T04:07:01;2.47;;;0.32;;
37455;SDS011;23316;50.718;7.328;2023-11-19T04:09:29;1.63;;;0.40;;
37455;SDS011;23316;50.718;7.328;2023-11-19T04:11:57;2.35;;;0.40;;
37455;SDS011;23316;50.718;7.328;2023-11-19T04:14:26;2.97;;;0.30;;
37455;SDS011;23316;50.718;7.328;2023-11-19T04:16:53;3.42;;;0.60;;
37455;SDS011;23316;50.718;7.328;2023-11-19T04:19:20;4.15;;;0.65;;
37455;SDS011;23316;50.718;7.328;2023-11-19T04:21:48;2.50;;;0.80;;
37455;SDS011;23316;50.718;7.328;2023-11-19T04:24:15;4.80;;;0.75;;
37455;SDS011;23316;50.718;7.328;2023-11-19T04:26:43;5.13;;;0.95;;
37455;SDS011;23316;50.718;7.328;2023-11-19T04:29:13;5.93;;;1.10;;
37455;SDS011;23316;50.718;7.328;2023-11-19T04:31:43;4.93;;;1.00;;
37455;SDS011;23316;50.718;7.328;2023-11-19T04:34:11;5.20;;;1.05;;
37455;SDS011;23316;50.718;7.328;2023-11-19T04:36:39;4.68;;;1.10;;
37455;SDS011;23316;50.718;7.328;2023-11-19T04:39:06;2.63;;;0.70;;
37455;SDS011;23316;50.718;7.328;2023-11-19T04:41:45;4.15;;;0.80;;
37455;SDS011;23316;50.718;7.328;2023-11-19T04:44:15;3.72;;;0.80;;
37455;SDS011;23316;50.718;7.328;2023-11-19T04:46:43;4.22;;;1.05;;
37455;SDS011;23316;50.718;7.328;2023-11-19T04:49:11;3.13;;;0.82;;
37455;SDS011;23316;50.718;7.328;2023-11-19T04:51:39;5.30;;;0.63;;
37455;SDS011;23316;50.718;7.328;2023-11-19T04:54:07;5.45;;;0.68;;
37455;SDS011;23316;50.718;7.328;2023-11-19T04:56:35;6.03;;;0.80;;
37455;SDS011;23316;50.718;7.328;2023-11-19T04:59:03;5.88;;;0.95;;
37455;SDS011;23316;50.718;7.328;2023-11-19T05:01:32;3.80;;;0.60;;
37455;SDS011;23316;50.718;7.328;2023-11-19T05:04:00;9.05;;;0.75;;
37455;SDS011;23316;50.718;7.328;2023-11-19T05:06:27;9.90;;;1.58;;
37455;SDS011;23316;50.718;7.328;2023-11-19T05:08:55;8.32;;;1.45;;
37455;SDS011;23316;50.718;7.328;2023-11-19T05:11:23;10.60;;;1.50;;
37455;SDS011;23316;50.718;7.328;2023-11-19T05:13:50;7.65;;;1.50;;
37455;SDS011;23316;50.718;7.328;2023-11-19T05:16:17;13.20;;;1.75;;
37455;SDS011;23316;50.718;7.328;2023-11-19T05:18:47;11.07;;;1.60;;
37455;SDS011;23316;50.718;7.328;2023-11-19T05:21:14;9.90;;;2.10;;
37455;SDS011;23316;50.718;7.328;2023-11-19T05:23:43;8.90;;;1.80;;
37455;SDS011;23316;50.718;7.328;2023-11-19T05:26:16;11.80;;;2.65;;
37455;SDS011;23316;50.718;7.328;2023-11-19T05:28:45;9.68;;;2.00;;
37455;SDS011;23316;50.718;7.328;2023-11-19T05:31:12;11.90;;;1.83;;
37455;SDS011;23316;50.718;7.328;2023-11-19T05:33:40;9.80;;;2.15;;
37455;SDS011;23316;50.718;7.328;2023-11-19T05:36:10;11.93;;;1.95;;
37455;SDS011;23316;50.718;7.328;2023-11-19T05:38:38;8.40;;;1.70;;
37455;SDS011;23316;50.718;7.328;2023-11-19T05:41:05;11.27;;;2.30;;
37455;SDS011;23316;50.718;7.328;2023-11-19T05:43:33;9.63;;;2.35;;
37455;SDS011;23316;50.718;7.328;2023-11-19T05:46:01;14.25;;;2.03;;
37455;SDS011;23316;50.718;7.328;2023-11-19T05:48:28;12.40;;;1.83;;
37455;SDS011;23316;50.718;7.328;2023-11-19T05:50:55;18.15;;;2.05;;
37455;SDS011;23316;50.718;7.328;2023-11-19T05:53:24;9.20;;;1.60;;
37455;SDS011;23316;50.718;7.328;2023-11-19T05:55:51;15.57;;;2.72;;
37455;SDS011;23316;50.718;7.328;2023-11-19T05:58:22;14.75;;;2.33;;
37455;SDS011;23316;50.718;7.328;2023-11-19T06:00:53;14.35;;;2.00;;
37455;SDS011;23316;50.718;7.328;2023-11-19T06:03:21;11.15;;;1.70;;
37455;SDS011;23316;50.718;7.328;2023-11-19T06:05:48;17.30;;;2.50;;
37455;SDS011;23316;50.718;7.328;2023-11-19T06:08:16;10.90;;;2.13;;
37455;SDS011;23316;50.718;7.328;2023-11-19T06:10:46;15.10;;;1.95;;
37455;SDS011;23316;50.718;7.328;2023-11-19T06:13:16;19.27;;;2.35;;
37455;SDS011;23316;50.718;7.328;2023-11-19T06:15:43;12.40;;;2.40;;
37455;SDS011;23316;50.718;7.328;2023-11-19T06:18:11;11.50;;;1.85;;
37455;SDS011;23316;50.718;7.328;2023-11-19T06:20:38;10.70;;;1.92;;
37455;SDS011;23316;50.718;7.328;2023-11-19T06:23:05;11.90;;;2.13;;
37455;SDS011;23316;50.718;7.328;2023-11-19T06:25:33;10.38;;;1.90;;
37455;SDS011;23316;50.718;7.328;2023-11-19T06:28:02;16.95;;;2.40;;
37455;SDS011;23316;50.718;7.328;2023-11-19T06:30:29;13.82;;;2.60;;
37455;SDS011;23316;50.718;7.328;2023-11-19T06:32:58;13.50;;;2.60;;
37455;SDS011;23316;50.718;7.328;2023-11-19T06:35:25;17.90;;;2.80;;
37455;SDS011;23316;50.718;7.328;2023-11-19T06:37:54;17.95;;;2.60;;
37455;SDS011;23316;50.718;7.328;2023-11-19T06:40:21;19.25;;;2.75;;
37455;SDS011;23316;50.718;7.328;2023-11-19T06:42:49;23.65;;;2.97;;
37455;SDS011;23316;50.718;7.328;2023-11-19T06:45:19;12.45;;;2.50;;
37455;SDS011;23316;50.718;7.328;2023-11-19T06:47:47;19.90;;;3.28;;
37455;SDS011;23316;50.718;7.328;2023-11-19T06:50:14;8.45;;;1.88;;
37455;SDS011;23316;50.718;7.328;2023-11-19T06:52:42;16.50;;;3.25;;
37455;SDS011;23316;50.718;7.328;2023-11-19T06:55:09;12.80;;;2.45;;
37455;SDS011;23316;50.718;7.328;2023-11-19T06:57:36;15.43;;;2.67;;
37455;SDS011;23316;50.718;7.328;2023-11-19T07:00:05;17.65;;;4.10;;
37455;SDS011;23316;50.718;7.328;2023-11-19T07:02:35;19.35;;;3.13;;
37455;SDS011;23316;50.718;7.328;2023-11-19T07:05:03;23.05;;;2.88;;
37455;SDS011;23316;50.718;7.328;2023-11-19T07:07:30;17.25;;;3.45;;
37455;SDS011;23316;50.718;7.328;2023-11-19T07:09:58;24.20;;;3.65;;
37455;SDS011;23316;50.718;7.328;2023-11-19T07:12:25;16.15;;;3.13;;
37455;SDS011;23316;50.718;7.328;2023-11-19T07:14:53;17.55;;;2.95;;
37455;SDS011;23316;50.718;7.328;2023-11-19T07:17:21;12.65;;;2.85;;
37455;SDS011;23316;50.718;7.328;2023-11-19T07:19:51;21.23;;;3.10;;
37455;SDS011;23316;50.718;7.328;2023-11-19T07:22:18;18.02;;;2.90;;
37455;SDS011;23316;50.718;7.328;2023-11-19T07:24:45;17.30;;;2.88;;
37455;SDS011;23316;50.718;7.328;2023-11-19T07:27:13;22.08;;;3.65;;
37455;SDS011;23316;50.718;7.328;2023-11-19T07:29:42;23.25;;;7.63;;
37455;SDS011;23316;50.718;7.328;2023-11-19T07:32:10;33.72;;;8.90;;
37455;SDS011;23316;50.718;7.328;2023-11-19T07:34:39;26.80;;;5.88;;
37455;SDS011;23316;50.718;7.328;2023-11-19T07:37:07;41.40;;;13.98;;
37455;SDS011;23316;50.718;7.328;2023-11-19T07:39:35;58.35;;;20.92;;
37455;SDS011;23316;50.718;7.328;2023-11-19T07:42:06;38.60;;;9.15;;
37455;SDS011;23316;50.718;7.328;2023-11-19T07:44:34;45.78;;;12.73;;
37455;SDS011;23316;50.718;7.328;2023-11-19T07:47:02;29.50;;;8.32;;
37455;SDS011;23316;50.718;7.328;2023-11-19T07:49:30;52.40;;;24.05;;
37455;SDS011;23316;50.718;7.328;2023-11-19T07:51:57;170.65;;;74.43;;
37455;SDS011;23316;50.718;7.328;2023-11-19T07:54:26;268.33;;;117.50;;
37455;SDS011;23316;50.718;7.328;2023-11-19T07:56:53;51.58;;;20.55;;
37455;SDS011;23316;50.718;7.328;2023-11-19T07:59:20;25.35;;;5.57;;
37455;SDS011;23316;50.718;7.328;2023-11-19T08:01:48;22.50;;;5.88;;
37455;SDS011;23316;50.718;7.328;2023-11-19T08:04:15;29.90;;;6.20;;
37455;SDS011;23316;50.718;7.328;2023-11-19T08:06:42;37.80;;;6.00;;
37455;SDS011;23316;50.718;7.328;2023-11-19T08:09:11;18.45;;;4.18;;
37455;SDS011;23316;50.718;7.328;2023-11-19T08:11:40;29.75;;;5.10;;
37455;SDS011;23316;50.718;7.328;2023-11-19T08:14:08;23.42;;;4.78;;
37455;SDS011;23316;50.718;7.328;2023-11-19T08:16:35;25.58;;;4.38;;
37455;SDS011;23316;50.718;7.328;2023-11-19T08:19:03;23.02;;;4.15;;
37455;SDS011;23316;50.718;7.328;2023-11-19T08:21:30;28.55;;;4.90;;
37455;SDS011;23316;50.718;7.328;2023-11-19T08:23:57;26.52;;;3.88;;
37455;SDS011;23316;50.718;7.328;2023-11-19T08:26:25;18.48;;;3.33;;
37455;SDS011;23316;50.718;7.328;2023-11-19T08:28:53;28.30;;;4.80;;
37455;SDS011;23316;50.718;7.328;2023-11-19T08:31:20;18.70;;;3.38;;
37455;SDS011;23316;50.718;7.328;2023-11-19T08:33:48;23.77;;;3.97;;
37455;SDS011;23316;50.718;7.328;2023-11-19T08:36:15;28.30;;;3.80;;
37455;SDS011;23316;50.718;7.328;2023-11-19T08:38:43;24.70;;;4.07;;
37455;SDS011;23316;50.718;7.328;2023-11-19T08:41:10;20.90;;;3.75;;
37455;SDS011;23316;50.718;7.328;2023-11-19T08:43:37;26.40;;;3.97;;
37455;SDS011;23316;50.718;7.328;2023-11-19T08:46:10;26.52;;;4.35;;
37455;SDS011;23316;50.718;7.328;2023-11-19T08:48:37;32.95;;;4.35;;
37455;SDS011;23316;50.718;7.328;2023-11-19T08:51:05;23.88;;;3.33;;
37455;SDS011;23316;50.718;7.328;2023-11-19T08:53:32;25.48;;;3.88;;
37455;SDS011;23316;50.718;7.328;2023-11-19T08:56:00;22.00;;;3.50;;
37455;SDS011;23316;50.718;7.328;2023-11-19T08:58:28;23.23;;;3.38;;
37455;SDS011;23316;50.718;7.328;2023-11-19T09:00:56;27.10;;;3.95;;
37455;SDS011;23316;50.718;7.328;2023-11-19T09:03:25;21.85;;;3.55;;
37455;SDS011;23316;50.718;7.328;2023-11-19T09:05:52;27.00;;;3.47;;
37455;SDS011;23316;50.718;7.328;2023-11-19T09:08:20;21.08;;;4.47;;
37455;SDS011;23316;50.718;7.328;2023-11-19T09:10:47;37.15;;;4.63;;
37455;SDS011;23316;50.718;7.328;2023-11-19T09:13:14;26.48;;;3.72;;
37455;SDS011;23316;50.718;7.328;2023-11-19T09:15:41;24.90;;;4.32;;
37455;SDS011;23316;50.718;7.328;2023-11-19T09:18:09;25.30;;;4.03;;
37455;SDS011;23316;50.718;7.328;2023-11-19T09:20:37;30.88;;;4.63;;
37455;SDS011;23316;50.718;7.328;2023-11-19T09:23:04;27.35;;;4.90;;
37455;SDS011;23316;50.718;7.328;2023-11-19T09:25:33;28.48;;;4.35;;
37455;SDS011;23316;50.718;7.328;2023-11-19T09:28:00;26.45;;;4.45;;
37455;SDS011;23316;50.718;7.328;2023-11-19T09:30:28;32.60;;;4.20;;
37455;SDS011;23316;50.718;7.328;2023-11-19T09:32:55;31.08;;;5.40;;
37455;SDS011;23316;50.718;7.328;2023-11-19T09:35:22;25.38;;;4.05;;
37455;SDS011;23316;50.718;7.328;2023-11-19T09:37:51;27.95;;;4.97;;
37455;SDS011;23316;50.718;7.328;2023-11-19T09:40:18;22.40;;;4.20;;
37455;SDS011;23316;50.718;7.328;2023-11-19T09:42:47;32.50;;;5.22;;
37455;SDS011;23316;50.718;7.328;2023-11-19T09:45:15;27.15;;;4.65;;
37455;SDS011;23316;50.718;7.328;2023-11-19T09:47:44;24.30;;;4.72;;
37455;SDS011;23316;50.718;7.328;2023-11-19T09:50:14;27.33;;;5.05;;
37455;SDS011;23316;50.718;7.328;2023-11-19T09:52:43;18.30;;;3.58;;
37455;SDS011;23316;50.718;7.328;2023-11-19T09:55:12;23.60;;;3.95;;
37455;SDS011;23316;50.718;7.328;2023-11-19T09:57:40;24.05;;;4.60;;
37455;SDS011;23316;50.718;7.328;2023-11-19T10:00:07;31.17;;;4.22;;
37455;SDS011;23316;50.718;7.328;2023-11-19T10:02:37;28.02;;;4.10;;
37455;SDS011;23316;50.718;7.328;2023-11-19T10:05:06;27.98;;;4.97;;
37455;SDS011;23316;50.718;7.328;2023-11-19T10:07:33;21.88;;;4.47;;
37455;SDS011;23316;50.718;7.328;2023-11-19T10:10:01;26.15;;;4.60;;
37455;SDS011;23316;50.718;7.328;2023-11-19T10:12:31;27.70;;;4.18;;
37455;SDS011;23316;50.718;7.328;2023-11-19T10:14:58;13.93;;;3.42;;
37455;SDS011;23316;50.718;7.328;2023-11-19T10:17:29;20.63;;;3.72;;
37455;SDS011;23316;50.718;7.328;2023-11-19T10:19:59;27.45;;;4.75;;
37455;SDS011;23316;50.718;7.328;2023-11-19T10:22:27;31.23;;;4.13;;
37455;SDS011;23316;50.718;7.328;2023-11-19T10:24:54;28.98;;;4.53;;
37455;SDS011;23316;50.718;7.328;2023-11-19T10:27:23;25.67;;;4.78;;
37455;SDS011;23316;50.718;7.328;2023-11-19T10:29:52;31.45;;;4.75;;
37455;SDS011;23316;50.718;7.328;2023-11-19T10:32:19;28.95;;;4.47;;
37455;SDS011;23316;50.718;7.328;2023-11-19T10:34:47;28.58;;;3.90;;
37455;SDS011;23316;50.718;7.328;2023-11-19T10:37:26;30.85;;;5.53;;
37455;SDS011;23316;50.718;7.328;2023-11-19T10:39:55;26.92;;;4.30;;
37455;SDS011;23316;50.718;7.328;2023-11-19T10:42:23;24.58;;;4.50;;
37455;SDS011;23316;50.718;7.328;2023-11-19T10:44:50;28.92;;;4.38;;
37455;SDS011;23316;50.718;7.328;2023-11-19T10:47:19;28.13;;;5.68;;
37455;SDS011;23316;50.718;7.328;2023-11-19T10:49:47;29.20;;;4.53;;
37455;SDS011;23316;50.718;7.328;2023-11-19T10:52:16;29.00;;;4.18;;
37455;SDS011;23316;50.718;7.328;2023-11-19T10:54:48;27.60;;;4.03;;
37455;SDS011;23316;50.718;7.328;2023-11-19T10:57:19;36.78;;;5.72;;
37455;SDS011;23316;50.718;7.328;2023-11-19T10:59:49;32.22;;;4.88;;
37455;SDS011;23316;50.718;7.328;2023-11-19T11:02:27;32.28;;;5.30;;
37455;SDS011;23316;50.718;7.328;2023-11-19T11:04:58;25.23;;;4.15;;
37455;SDS011;23316;50.718;7.328;2023-11-19T11:07:28;28.23;;;5.70;;
37455;SDS011;23316;50.718;7.328;2023-11-19T11:09:57;23.73;;;4.60;;
37455;SDS011;23316;50.718;7.328;2023-11-19T11:12:25;18.48;;;4.15;;
37455;SDS011;23316;50.718;7.328;2023-11-19T11:14:55;25.73;;;4.40;;
37455;SDS011;23316;50.718;7.328;2023-11-19T11:17:24;23.75;;;3.95;;
37455;SDS011;23316;50.718;7.328;2023-11-19T11:19:53;28.95;;;4.60;;
37455;SDS011;23316;50.718;7.328;2023-11-19T11:22:20;26.98;;;4.38;;
37455;SDS011;23316;50.718;7.328;2023-11-19T11:24:56;37.92;;;4.75;;
37455;SDS011;23316;50.718;7.328;2023-11-19T11:27:54;25.25;;;3.95;;
37455;SDS011;23316;50.718;7.328;2023-11-19T11:30:39;25.50;;;3.92;;
37455;SDS011;23316;50.718;7.328;2023-11-19T11:36:11;27.33;;;4.45;;
37455;SDS011;23316;50.718;7.328;2023-11-19T11:38:44;24.98;;;4.00;;
37455;SDS011;23316;50.718;7.328;2023-11-19T11:41:15;23.90;;;4.72;;
37455;SDS011;23316;50.718;7.328;2023-11-19T11:43:43;20.63;;;4.38;;
37455;SDS011;23316;50.718;7.328;2023-11-19T11:49:13;22.60;;;3.78;;
37455;SDS011;23316;50.718;7.328;2023-11-19T11:54:29;30.48;;;4.72;;
37455;SDS011;23316;50.718;7.328;2023-11-19T11:57:00;23.25;;;3.80;;
37455;SDS011;23316;50.718;7.328;2023-11-19T11:59:31;21.42;;;4.13;;
37455;SDS011;23316;50.718;7.328;2023-11-19T12:02:04;22.77;;;3.35;;
37455;SDS011;23316;50.718;7.328;2023-11-19T12:04:35;23.98;;;4.22;;
37455;SDS011;23316;50.718;7.328;2023-11-19T12:07:04;19.33;;;3.00;;
37455;SDS011;23316;50.718;7.328;2023-11-19T12:09:32;23.40;;;4.15;;
37455;SDS011;23316;50.718;7.328;2023-11-19T12:12:07;24.08;;;4.63;;
37455;SDS011;23316;50.718;7.328;2023-11-19T12:17:40;25.52;;;4.50;;
37455;SDS011;23316;50.718;7.328;2023-11-19T12:20:17;22.65;;;4.25;;
37455;SDS011;23316;50.718;7.328;2023-11-19T12:22:45;30.90;;;4.43;;
37455;SDS011;23316;50.718;7.328;2023-11-19T12:25:14;28.92;;;3.97;;
37455;SDS011;23316;50.718;7.328;2023-11-19T12:27:43;28.55;;;4.85;;
37455;SDS011;23316;50.718;7.328;2023-11-19T12:30:11;23.58;;;4.32;;
37455;SDS011;23316;50.718;7.328;2023-11-19T12:32:39;19.40;;;3.35;;
37455;SDS011;23316;50.718;7.328;2023-11-19T12:35:08;31.77;;;4.45;;
37455;SDS011;23316;50.718;7.328;2023-11-19T12:37:40;25.85;;;3.90;;
37455;SDS011;23316;50.718;7.328;2023-11-19T12:40:14;22.90;;;4.60;;
37455;SDS011;23316;50.718;7.328;2023-11-19T12:42:43;28.88;;;4.78;;
37455;SDS011;23316;50.718;7.328;2023-11-19T12:45:10;28.30;;;5.10;;
37455;SDS011;23316;50.718;7.328;2023-11-19T12:47:39;24.27;;;4.70;;
37455;SDS011;23316;50.718;7.328;2023-11-19T12:50:07;30.60;;;4.60;;
37455;SDS011;23316;50.718;7.328;2023-11-19T12:52:35;25.35;;;4.28;;
37455;SDS011;23316;50.718;7.328;2023-11-19T12:55:04;18.75;;;3.47;;
37455;SDS011;23316;50.718;7.328;2023-11-19T12:57:36;25.88;;;3.72;;
37455;SDS011;23316;50.718;7.328;2023-11-19T13:00:05;20.10;;;3.72;;
37455;SDS011;23316;50.718;7.328;2023-11-19T13:02:45;21.45;;;3.30;;
37455;SDS011;23316;50.718;7.328;2023-11-19T13:05:23;22.02;;;4.25;;
37455;SDS011;23316;50.718;7.328;2023-11-19T13:07:51;24.33;;;4.35;;
37455;SDS011;23316;50.718;7.328;2023-11-19T13:10:27;21.05;;;3.60;;
37455;SDS011;23316;50.718;7.328;2023-11-19T13:13:01;28.08;;;4.88;;
37455;SDS011;23316;50.718;7.328;2023-11-19T13:15:29;24.27;;;4.55;;
37455;SDS011;23316;50.718;7.328;2023-11-19T13:17:59;24.25;;;5.20;;
37455;SDS011;23316;50.718;7.328;2023-11-19T13:20:27;21.77;;;3.83;;
37455;SDS011;23316;50.718;7.328;2023-11-19T13:22:55;25.02;;;4.55;;
37455;SDS011;23316;50.718;7.328;2023-11-19T13:25:23;25.25;;;3.72;;
37455;SDS011;23316;50.718;7.328;2023-11-19T13:27:52;23.13;;;3.60;;
37455;SDS011;23316;50.718;7.328;2023-11-19T13:30:20;20.35;;;3.80;;
37455;SDS011;23316;50.718;7.328;2023-11-19T13:32:47;23.48;;;3.47;;
37455;SDS011;23316;50.718;7.328;2023-11-19T13:35:15;25.85;;;3.70;;
37455;SDS011;23316;50.718;7.328;2023-11-19T13:37:44;19.08;;;3.70;;
37455;SDS011;23316;50.718;7.328;2023-11-19T13:40:11;18.63;;;3.20;;
37455;SDS011;23316;50.718;7.328;2023-11-19T13:42:41;21.63;;;3.45;;
37455;SDS011;23316;50.718;7.328;2023-11-19T13:45:10;22.45;;;3.42;;
37455;SDS011;23316;50.718;7.328;2023-11-19T13:47:38;28.45;;;4.13;;
37455;SDS011;23316;50.718;7.328;2023-11-19T13:50:08;19.08;;;3.58;;
37455;SDS011;23316;50.718;7.328;2023-11-19T13:52:36;20.98;;;3.63;;
37455;SDS011;23316;50.718;7.328;2023-11-19T13:55:07;19.55;;;3.90;;
37455;SDS011;23316;50.718;7.328;2023-11-19T13:57:36;19.67;;;3.67;;
37455;SDS011;23316;50.718;7.328;2023-11-19T14:00:04;19.75;;;4.85;;
37455;SDS011;23316;50.718;7.328;2023-11-19T14:02:38;24.88;;;4.03;;
37455;SDS011;23316;50.718;7.328;2023-11-19T14:05:06;17.52;;;3.22;;
37455;SDS011;23316;50.718;7.328;2023-11-19T14:07:33;23.00;;;3.75;;
37455;SDS011;23316;50.718;7.328;2023-11-19T14:10:01;21.23;;;3.47;;
37455;SDS011;23316;50.718;7.328;2023-11-19T14:12:28;19.92;;;3.00;;
37455;SDS011;23316;50.718;7.328;2023-11-19T14:14:55;23.73;;;4.80;;
37455;SDS011;23316;50.718;7.328;2023-11-19T14:17:23;22.15;;;3.00;;
37455;SDS011;23316;50.718;7.328;2023-11-19T14:19:52;28.05;;;4.07;;
37455;SDS011;23316;50.718;7.328;2023-11-19T14:22:19;24.13;;;3.72;;
37455;SDS011;23316;50.718;7.328;2023-11-19T14:24:46;21.77;;;4.07;;
37455;SDS011;23316;50.718;7.328;2023-11-19T14:27:14;27.98;;;4.53;;
37455;SDS011;23316;50.718;7.328;2023-11-19T14:29:42;22.90;;;3.17;;
37455;SDS011;23316;50.718;7.328;2023-11-19T14:32:11;18.77;;;3.53;;
37455;SDS011;23316;50.718;7.328;2023-11-19T14:34:38;20.63;;;4.05;;
37455;SDS011;23316;50.718;7.328;2023-11-19T14:37:07;23.45;;;4.13;;
37455;SDS011;23316;50.718;7.328;2023-11-19T14:39:34;24.63;;;4.55;;
37455;SDS011;23316;50.718;7.328;2023-11-19T14:42:01;26.08;;;3.85;;
37455;SDS011;23316;50.718;7.328;2023-11-19T14:44:30;20.65;;;3.60;;
37455;SDS011;23316;50.718;7.328;2023-11-19T14:46:58;20.15;;;3.85;;
37455;SDS011;23316;50.718;7.328;2023-11-19T14:49:27;26.88;;;3.30;;
37455;SDS011;23316;50.718;7.328;2023-11-19T14:51:54;20.42;;;3.65;;
37455;SDS011;23316;50.718;7.328;2023-11-19T14:54:23;17.80;;;3.92;;
37455;SDS011;23316;50.718;7.328;2023-11-19T14:56:51;20.10;;;3.75;;
37455;SDS011;23316;50.718;7.328;2023-11-19T14:59:18;20.98;;;4.00;;
37455;SDS011;23316;50.718;7.328;2023-11-19T15:01:46;18.77;;;3.10;;